sensor_id;sensor_type;location;lat;lon;timestamp;P1;durP1;ratioP1;P2;durP2;ratioP2
14774;SDS011;7479;47.042;15.160;2023-07-16T05:11:43;7.18;;;5.93;;
14774;SDS011;7479;47.042;15.160;2023-07-16T05:16:37;6.55;;;5.95;;
14774;SDS011;7479;47.042;15.160;2023-07-16T05:28:36;6.20;;;5.60;;
14774;SDS011;7479;47.042;15.160;2023-07-16T05:45:08;6.32;;;5.65;;
14774;SDS011;7479;47.042;15.160;2023-07-16T05:55:44;7.70;;;5.35;;
14774;SDS011;7479;47.042;15.160;2023-07-16T06:00:38;6.90;;;5.75;;
14774;SDS011;7479;47.042;15.160;2023-07-16T06:05:32;6.57;;;5.82;;
14774;SDS011;7479;47.042;15.160;2023-07-16T06:10:26;6.22;;;5.63;;
14774;SDS011;7479;47.042;15.160;2023-07-16T06:21:00;5.90;;;5.40;;
14774;SDS011;7479;47.042;15.160;2023-07-16T07:01:46;6.88;;;5.65;;
14774;SDS011;7479;47.042;15.160;2023-07-16T07:12:25;6.13;;;5.63;;
14774;SDS011;7479;47.042;15.160;2023-07-16T07:23:34;6.43;;;5.72;;
14774;SDS011;7479;47.042;15.160;2023-07-16T07:34:48;6.78;;;6.07;;
14774;SDS011;7479;47.042;15.160;2023-07-16T07:39:42;6.57;;;5.97;;
14774;SDS011;7479;47.042;15.160;2023-07-16T07:51:06;6.53;;;5.93;;
14774;SDS011;7479;47.042;15.160;2023-07-16T08:02:45;6.20;;;5.60;;
14774;SDS011;7479;47.042;15.160;2023-07-16T08:14:11;6.97;;;5.20;;
14774;SDS011;7479;47.042;15.160;2023-07-16T08:31:17;5.55;;;4.88;;
14774;SDS011;7479;47.042;15.160;2023-07-16T08:36:11;5.35;;;4.93;;
14774;SDS011;7479;47.042;15.160;2023-07-16T08:47:32;5.72;;;5.20;;
14774;SDS011;7479;47.042;15.160;2023-07-16T08:52:26;5.70;;;5.10;;
14774;SDS011;7479;47.042;15.160;2023-07-16T08:57:21;5.32;;;4.65;;
14774;SDS011;7479;47.042;15.160;2023-07-16T09:07:35;6.05;;;5.50;;
14774;SDS011;7479;47.042;15.160;2023-07-16T09:12:29;5.75;;;5.20;;
14774;SDS011;7479;47.042;15.160;2023-07-16T09:17:23;5.75;;;5.25;;
14774;SDS011;7479;47.042;15.160;2023-07-16T09:22:17;5.38;;;4.50;;
14774;SDS011;7479;47.042;15.160;2023-07-16T09:27:13;4.80;;;4.40;;
14774;SDS011;7479;47.042;15.160;2023-07-16T09:32:07;5.32;;;4.50;;
14774;SDS011;7479;47.042;15.160;2023-07-16T09:37:01;5.82;;;5.00;;
14774;SDS011;7479;47.042;15.160;2023-07-16T09:41:57;4.57;;;4.20;;
14774;SDS011;7479;47.042;15.160;2023-07-16T09:46:52;5.22;;;4.72;;
14774;SDS011;7479;47.042;15.160;2023-07-16T09:51:47;5.63;;;4.70;;
14774;SDS011;7479;47.042;15.160;2023-07-16T09:56:44;7.97;;;4.43;;
14774;SDS011;7479;47.042;15.160;2023-07-16T10:01:41;5.20;;;4.70;;
14774;SDS011;7479;47.042;15.160;2023-07-16T10:06:36;4.75;;;4.32;;
14774;SDS011;7479;47.042;15.160;2023-07-16T10:11:36;5.20;;;4.25;;
14774;SDS011;7479;47.042;15.160;2023-07-16T10:16:35;4.40;;;4.00;;
14774;SDS011;7479;47.042;15.160;2023-07-16T10:21:36;4.47;;;4.07;;
14774;SDS011;7479;47.042;15.160;2023-07-16T10:26:31;5.72;;;4.32;;
14774;SDS011;7479;47.042;15.160;2023-07-16T10:31:28;4.90;;;4.22;;
14774;SDS011;7479;47.042;15.160;2023-07-16T10:36:22;5.60;;;4.32;;
14774;SDS011;7479;47.042;15.160;2023-07-16T10:41:17;4.50;;;4.15;;
14774;SDS011;7479;47.042;15.160;2023-07-16T10:46:11;4.63;;;4.25;;
14774;SDS011;7479;47.042;15.160;2023-07-16T10:51:04;5.95;;;4.38;;
14774;SDS011;7479;47.042;15.160;2023-07-16T10:55:58;6.20;;;4.40;;
14774;SDS011;7479;47.042;15.160;2023-07-16T11:00:54;4.57;;;4.18;;
14774;SDS011;7479;47.042;15.160;2023-07-16T11:05:48;5.05;;;4.35;;
14774;SDS011;7479;47.042;15.160;2023-07-16T11:10:42;3.88;;;3.58;;
14774;SDS011;7479;47.042;15.160;2023-07-16T11:15:35;5.00;;;4.60;;
14774;SDS011;7479;47.042;15.160;2023-07-16T11:20:31;5.60;;;4.82;;
14774;SDS011;7479;47.042;15.160;2023-07-16T11:25:25;5.13;;;4.63;;
14774;SDS011;7479;47.042;15.160;2023-07-16T11:30:22;4.25;;;3.75;;
14774;SDS011;7479;47.042;15.160;2023-07-16T11:35:17;4.95;;;4.55;;
14774;SDS011;7479;47.042;15.160;2023-07-16T11:40:14;4.68;;;4.38;;
14774;SDS011;7479;47.042;15.160;2023-07-16T11:45:14;4.70;;;4.30;;
14774;SDS011;7479;47.042;15.160;2023-07-16T11:50:09;5.70;;;5.00;;
14774;SDS011;7479;47.042;15.160;2023-07-16T11:55:03;5.50;;;5.00;;
14774;SDS011;7479;47.042;15.160;2023-07-16T11:59:59;5.55;;;4.70;;
14774;SDS011;7479;47.042;15.160;2023-07-16T12:04:55;5.55;;;4.57;;
14774;SDS011;7479;47.042;15.160;2023-07-16T12:09:49;5.82;;;4.82;;
14774;SDS011;7479;47.042;15.160;2023-07-16T12:14:42;5.47;;;5.07;;
14774;SDS011;7479;47.042;15.160;2023-07-16T12:19:37;4.95;;;4.20;;
14774;SDS011;7479;47.042;15.160;2023-07-16T12:24:31;5.40;;;4.90;;
14774;SDS011;7479;47.042;15.160;2023-07-16T12:29:25;5.03;;;4.63;;
14774;SDS011;7479;47.042;15.160;2023-07-16T12:34:19;4.68;;;4.28;;
14774;SDS011;7479;47.042;15.160;2023-07-16T12:39:14;4.97;;;4.47;;
14774;SDS011;7479;47.042;15.160;2023-07-16T12:44:08;4.53;;;4.10;;
14774;SDS011;7479;47.042;15.160;2023-07-16T12:49:02;4.80;;;4.30;;
14774;SDS011;7479;47.042;15.160;2023-07-16T12:53:56;5.22;;;4.70;;
14774;SDS011;7479;47.042;15.160;2023-07-16T12:58:51;4.85;;;4.15;;
14774;SDS011;7479;47.042;15.160;2023-07-16T13:03:44;5.18;;;4.57;;
14774;SDS011;7479;47.042;15.160;2023-07-16T13:08:38;4.65;;;4.20;;
14774;SDS011;7479;47.042;15.160;2023-07-16T13:13:32;4.95;;;4.53;;
14774;SDS011;7479;47.042;15.160;2023-07-16T13:18:28;7.38;;;4.50;;
14774;SDS011;7479;47.042;15.160;2023-07-16T13:23:22;5.25;;;4.53;;
14774;SDS011;7479;47.042;15.160;2023-07-16T13:28:16;5.13;;;4.63;;
14774;SDS011;7479;47.042;15.160;2023-07-16T13:33:09;5.15;;;4.53;;
14774;SDS011;7479;47.042;15.160;2023-07-16T13:38:04;5.07;;;4.57;;
14774;SDS011;7479;47.042;15.160;2023-07-16T13:42:58;6.57;;;5.05;;
14774;SDS011;7479;47.042;15.160;2023-07-16T13:47:51;4.82;;;4.40;;
14774;SDS011;7479;47.042;15.160;2023-07-16T13:52:46;5.05;;;4.63;;
14774;SDS011;7479;47.042;15.160;2023-07-16T13:57:41;5.63;;;5.13;;
14774;SDS011;7479;47.042;15.160;2023-07-16T14:02:35;5.35;;;4.65;;
14774;SDS011;7479;47.042;15.160;2023-07-16T14:07:28;6.50;;;4.82;;
14774;SDS011;7479;47.042;15.160;2023-07-16T14:12:22;6.95;;;4.53;;
14774;SDS011;7479;47.042;15.160;2023-07-16T14:17:17;5.20;;;4.78;;
14774;SDS011;7479;47.042;15.160;2023-07-16T14:22:11;6.38;;;5.00;;
14774;SDS011;7479;47.042;15.160;2023-07-16T14:27:07;5.88;;;5.10;;
14774;SDS011;7479;47.042;15.160;2023-07-16T14:32:00;5.18;;;4.78;;
14774;SDS011;7479;47.042;15.160;2023-07-16T14:36:56;5.72;;;5.15;;
14774;SDS011;7479;47.042;15.160;2023-07-16T14:41:49;5.63;;;5.13;;
14774;SDS011;7479;47.042;15.160;2023-07-16T14:46:43;5.50;;;4.90;;
14774;SDS011;7479;47.042;15.160;2023-07-16T14:51:37;5.85;;;5.28;;
14774;SDS011;7479;47.042;15.160;2023-07-16T14:56:33;5.68;;;5.15;;
14774;SDS011;7479;47.042;15.160;2023-07-16T15:01:27;7.25;;;6.00;;
14774;SDS011;7479;47.042;15.160;2023-07-16T15:06:21;7.07;;;5.18;;
14774;SDS011;7479;47.042;15.160;2023-07-16T15:11:16;5.75;;;4.88;;
14774;SDS011;7479;47.042;15.160;2023-07-16T15:16:11;6.35;;;5.25;;
14774;SDS011;7479;47.042;15.160;2023-07-16T15:21:05;5.90;;;5.40;;
14774;SDS011;7479;47.042;15.160;2023-07-16T15:26:00;6.05;;;5.30;;
14774;SDS011;7479;47.042;15.160;2023-07-16T15:30:56;6.10;;;5.60;;
14774;SDS011;7479;47.042;15.160;2023-07-16T15:35:51;7.75;;;6.00;;
14774;SDS011;7479;47.042;15.160;2023-07-16T15:40:45;6.68;;;5.50;;
14774;SDS011;7479;47.042;15.160;2023-07-16T15:45:39;6.22;;;5.63;;
14774;SDS011;7479;47.042;15.160;2023-07-16T15:50:33;6.70;;;5.85;;
14774;SDS011;7479;47.042;15.160;2023-07-16T15:55:28;7.28;;;5.82;;
14774;SDS011;7479;47.042;15.160;2023-07-16T16:00:22;6.50;;;5.90;;
14774;SDS011;7479;47.042;15.160;2023-07-16T16:05:17;6.38;;;5.35;;
14774;SDS011;7479;47.042;15.160;2023-07-16T16:10:11;7.15;;;5.65;;
14774;SDS011;7479;47.042;15.160;2023-07-16T16:15:07;5.90;;;5.38;;
14774;SDS011;7479;47.042;15.160;2023-07-16T16:20:01;5.78;;;5.10;;
14774;SDS011;7479;47.042;15.160;2023-07-16T16:24:59;7.25;;;4.95;;
14774;SDS011;7479;47.042;15.160;2023-07-16T16:29:54;7.75;;;5.25;;
14774;SDS011;7479;47.042;15.160;2023-07-16T16:34:49;5.90;;;5.35;;
14774;SDS011;7479;47.042;15.160;2023-07-16T16:39:43;6.13;;;4.90;;
14774;SDS011;7479;47.042;15.160;2023-07-16T16:44:37;5.20;;;4.80;;
14774;SDS011;7479;47.042;15.160;2023-07-16T16:49:30;6.20;;;4.97;;
14774;SDS011;7479;47.042;15.160;2023-07-16T16:54:26;6.80;;;5.35;;
14774;SDS011;7479;47.042;15.160;2023-07-16T16:59:23;6.38;;;5.30;;
14774;SDS011;7479;47.042;15.160;2023-07-16T17:04:17;6.35;;;5.75;;
14774;SDS011;7479;47.042;15.160;2023-07-16T17:09:10;7.05;;;5.00;;
14774;SDS011;7479;47.042;15.160;2023-07-16T17:14:06;6.05;;;5.43;;
14774;SDS011;7479;47.042;15.160;2023-07-16T17:18:59;10.05;;;6.07;;
14774;SDS011;7479;47.042;15.160;2023-07-16T17:23:53;7.18;;;5.72;;
14774;SDS011;7479;47.042;15.160;2023-07-16T17:28:47;5.93;;;5.15;;
14774;SDS011;7479;47.042;15.160;2023-07-16T17:33:42;7.68;;;5.90;;
14774;SDS011;7479;47.042;15.160;2023-07-16T17:38:37;6.35;;;5.85;;
14774;SDS011;7479;47.042;15.160;2023-07-16T17:43:30;6.63;;;5.93;;
14774;SDS011;7479;47.042;15.160;2023-07-16T17:48:24;6.00;;;5.45;;
14774;SDS011;7479;47.042;15.160;2023-07-16T17:53:19;6.10;;;5.60;;
14774;SDS011;7479;47.042;15.160;2023-07-16T17:58:13;6.95;;;5.40;;
14774;SDS011;7479;47.042;15.160;2023-07-16T18:03:06;8.20;;;5.90;;
14774;SDS011;7479;47.042;15.160;2023-07-16T18:08:00;6.72;;;6.07;;
14774;SDS011;7479;47.042;15.160;2023-07-16T18:12:56;6.85;;;5.82;;
14774;SDS011;7479;47.042;15.160;2023-07-16T18:17:50;7.82;;;5.57;;
14774;SDS011;7479;47.042;15.160;2023-07-16T18:22:44;8.25;;;6.90;;
14774;SDS011;7479;47.042;15.160;2023-07-16T18:27:38;7.43;;;6.55;;
14774;SDS011;7479;47.042;15.160;2023-07-16T18:32:33;7.13;;;6.28;;
14774;SDS011;7479;47.042;15.160;2023-07-16T18:37:27;8.63;;;6.13;;
14774;SDS011;7479;47.042;15.160;2023-07-16T18:42:20;7.18;;;6.47;;
14774;SDS011;7479;47.042;15.160;2023-07-16T18:47:16;8.48;;;6.35;;
14774;SDS011;7479;47.042;15.160;2023-07-16T18:52:11;7.25;;;6.55;;
14774;SDS011;7479;47.042;15.160;2023-07-16T18:57:05;9.13;;;7.43;;
14774;SDS011;7479;47.042;15.160;2023-07-16T19:01:59;7.38;;;6.65;;
14774;SDS011;7479;47.042;15.160;2023-07-16T19:06:52;9.10;;;7.22;;
14774;SDS011;7479;47.042;15.160;2023-07-16T19:11:48;7.97;;;7.07;;
14774;SDS011;7479;47.042;15.160;2023-07-16T19:16:42;10.50;;;7.20;;
14774;SDS011;7479;47.042;15.160;2023-07-16T19:21:36;7.00;;;6.30;;
14774;SDS011;7479;47.042;15.160;2023-07-16T19:26:29;8.90;;;6.85;;
14774;SDS011;7479;47.042;15.160;2023-07-16T19:31:24;9.23;;;7.05;;
14774;SDS011;7479;47.042;15.160;2023-07-16T19:36:20;7.55;;;6.75;;
14774;SDS011;7479;47.042;15.160;2023-07-16T19:41:14;7.38;;;6.68;;
14774;SDS011;7479;47.042;15.160;2023-07-16T19:46:08;7.15;;;6.50;;
14774;SDS011;7479;47.042;15.160;2023-07-16T19:51:03;7.40;;;6.70;;
14774;SDS011;7479;47.042;15.160;2023-07-16T19:55:59;8.13;;;7.32;;
14774;SDS011;7479;47.042;15.160;2023-07-16T20:00:53;8.52;;;6.75;;
14774;SDS011;7479;47.042;15.160;2023-07-16T20:05:47;8.70;;;6.75;;
14774;SDS011;7479;47.042;15.160;2023-07-16T20:10:44;8.75;;;6.97;;
14774;SDS011;7479;47.042;15.160;2023-07-16T20:15:39;10.05;;;6.85;;
14774;SDS011;7479;47.042;15.160;2023-07-16T20:20:34;10.07;;;7.07;;
14774;SDS011;7479;47.042;15.160;2023-07-16T20:25:28;8.48;;;7.45;;
14774;SDS011;7479;47.042;15.160;2023-07-16T20:30:23;7.80;;;7.10;;
14774;SDS011;7479;47.042;15.160;2023-07-16T20:35:17;9.38;;;7.47;;
